createdAt,value
2023-03-11T00:03:28.494Z,94857.78
2023-03-11T00:07:40.956Z,94873.25
2023-03-11T00:11:53.433Z,94870.38
2023-03-11T00:16:06.499Z,94857.22
2023-03-11T00:20:26.724Z,94872.38
2023-03-11T00:24:39.212Z,94883.78
2023-03-11T00:28:51.677Z,94909.56
2023-03-11T00:33:04.872Z,94911.66
2023-03-11T00:37:17.269Z,94933.16
2023-03-11T00:41:30.247Z,94934.66
2023-03-11T00:45:43.034Z,94939.22
2023-03-11T00:49:55.503Z,94940.22
2023-03-11T00:54:07.948Z,94934.19
2023-03-11T00:58:20.424Z,94944.75
2023-03-11T01:02:32.877Z,94966.47
2023-03-11T01:06:46.400Z,94957.22
2023-03-11T01:11:01.243Z,94969.50
2023-03-11T01:15:34.810Z,94973.44
2023-03-11T01:19:47.334Z,94948.31
2023-03-11T01:23:59.755Z,94933.59
2023-03-11T01:28:12.624Z,94952.84
2023-03-11T01:32:25.158Z,94961.94
2023-03-11T01:36:37.632Z,94971.72
2023-03-11T01:40:52.684Z,94982.94
2023-03-11T01:46:03.346Z,94995.16
2023-03-11T01:50:16.118Z,94995.34
2023-03-11T01:54:34.924Z,94984.03
2023-03-11T01:58:54.908Z,95000.50
2023-03-11T02:03:15.014Z,94988.75
2023-03-11T02:07:27.524Z,94981.03
2023-03-11T02:11:40.123Z,94977.09
2023-03-11T02:15:53.116Z,94978.19
2023-03-11T02:20:43.790Z,94991.13
2023-03-11T02:25:54.680Z,94996.47
2023-03-11T02:30:08.579Z,95001.06
2023-03-11T02:34:31.583Z,94987.97
2023-03-11T02:38:44.143Z,94980.91
2023-03-11T02:43:07.923Z,94998.22
2023-03-11T02:47:20.390Z,94997.47
2023-03-11T02:51:32.889Z,95007.81
2023-03-11T02:55:45.356Z,95012.28
2023-03-11T02:59:57.817Z,95015.53
2023-03-11T03:04:14.040Z,95012.81
2023-03-11T03:08:26.617Z,95023.25
2023-03-11T03:12:39.178Z,95019.09
2023-03-11T03:16:58.342Z,95036.28
2023-03-11T03:21:11.050Z,95045.34
2023-03-11T03:25:23.561Z,95048.53
2023-03-11T03:29:36.022Z,95060.28
2023-03-11T03:33:48.496Z,95042.63
2023-03-11T03:38:04.224Z,95050.03
2023-03-11T03:42:16.663Z,95039.28
2023-03-11T03:46:29.377Z,95058.84
2023-03-11T03:50:41.900Z,95066.75
2023-03-11T03:54:54.415Z,95065.91
2023-03-11T03:59:07.034Z,95047.22
2023-03-11T04:03:19.529Z,95038.97
2023-03-11T04:07:32.000Z,95052.91
2023-03-11T04:11:54.501Z,95058.50
2023-03-11T04:16:08.804Z,95077.28
2023-03-11T04:20:21.476Z,95069.66
2023-03-11T04:24:33.943Z,95075.44
2023-03-11T04:28:51.802Z,95084.84
2023-03-11T04:33:04.396Z,95081.22
2023-03-11T04:37:16.869Z,95081.97
2023-03-11T04:41:29.335Z,95077.31
2023-03-11T04:45:52.387Z,95080.28
2023-03-11T04:50:05.791Z,95100.22
2023-03-11T04:54:18.238Z,95094.97
2023-03-11T04:58:30.698Z,95107.88
2023-03-11T05:02:43.694Z,95114.47
2023-03-11T05:06:56.192Z,95115.31
2023-03-11T05:11:09.633Z,95124.16
2023-03-11T05:15:32.368Z,95117.88
2023-03-11T05:19:44.863Z,95127.09
2023-03-11T05:23:57.290Z,95142.34
2023-03-11T05:28:19.765Z,95145.06
2023-03-11T05:32:32.457Z,95159.06
2023-03-11T05:36:45.578Z,95159.38
2023-03-11T05:40:58.051Z,95168.41
2023-03-11T05:45:11.288Z,95179.34
2023-03-11T05:49:24.026Z,95179.63
2023-03-11T05:53:36.803Z,95186.22
2023-03-11T05:57:53.064Z,95181.25
2023-03-11T06:02:05.649Z,95173.59
2023-03-11T06:06:18.586Z,95170.88
2023-03-11T06:10:31.150Z,95174.88
2023-03-11T06:14:43.667Z,95175.38
2023-03-11T06:18:56.569Z,95194.72
2023-03-11T06:23:09.192Z,95185.56
2023-03-11T06:27:21.627Z,95191.69
2023-03-11T06:31:38.218Z,95208.16
2023-03-11T06:35:58.932Z,95213.53
2023-03-11T06:40:12.097Z,95217.91
2023-03-11T06:44:26.366Z,95221.00
2023-03-11T06:48:39.129Z,95233.72
2023-03-11T06:52:51.605Z,95229.47
2023-03-11T06:57:04.458Z,95230.16
2023-03-11T07:01:23.800Z,95242.31
2023-03-11T07:05:36.379Z,95248.34
2023-03-11T07:09:48.836Z,95249.09
2023-03-11T07:14:01.297Z,95248.50
2023-03-11T07:18:23.728Z,95271.97
2023-03-11T07:22:46.283Z,95268.25
2023-03-11T07:26:58.801Z,95300.53
2023-03-11T07:31:16.601Z,95308.16
2023-03-11T07:35:29.233Z,95298.63
2023-03-11T07:39:41.745Z,95309.50
2023-03-11T07:44:00.711Z,95317.00
2023-03-11T07:48:13.957Z,95312.41
2023-03-11T07:52:26.438Z,95322.81
2023-03-11T07:56:39.260Z,95323.13
2023-03-11T08:00:52.380Z,95324.56
2023-03-11T08:05:05.845Z,95333.69
2023-03-11T08:09:18.650Z,95336.72
2023-03-11T08:13:31.084Z,95325.00
2023-03-11T08:17:43.561Z,95333.22
2023-03-11T08:21:56.080Z,95333.06
2023-03-11T08:26:12.443Z,95335.53
2023-03-11T08:30:25.414Z,95338.97
2023-03-11T08:34:40.226Z,95362.75
2023-03-11T08:38:53.918Z,95362.16
2023-03-11T08:43:06.660Z,95369.28
2023-03-11T08:47:19.214Z,95373.53
2023-03-11T08:51:34.383Z,95380.50
2023-03-11T08:55:46.825Z,95374.38
2023-03-11T08:59:59.445Z,95378.19
2023-03-11T09:04:12.838Z,95381.34
2023-03-11T09:08:27.038Z,95385.84
2023-03-11T09:12:39.807Z,95382.31
2023-03-11T09:16:52.341Z,95397.13
2023-03-11T09:21:05.073Z,95395.19
2023-03-11T09:25:17.838Z,95388.50
2023-03-11T09:29:30.625Z,95377.63
2023-03-11T09:33:44.429Z,95384.88
2023-03-11T09:37:57.082Z,95383.56
2023-03-11T09:43:13.496Z,95394.31
2023-03-11T09:48:02.951Z,95390.28
2023-03-11T09:52:20.524Z,95392.22
2023-03-11T09:56:36.384Z,95392.63
2023-03-11T10:00:52.927Z,95400.44
2023-03-11T10:05:23.018Z,95400.19
2023-03-11T10:09:49.787Z,95410.72
2023-03-11T10:14:44.304Z,95421.53
2023-03-11T10:19:28.969Z,95419.47
2023-03-11T10:24:16.908Z,95413.88
2023-03-11T10:28:53.825Z,95411.34
2023-03-11T10:34:05.102Z,95424.13
2023-03-11T10:38:36.784Z,95433.88
2023-03-11T10:42:50.457Z,95434.88
2023-03-11T10:47:23.758Z,95437.78
2023-03-11T10:51:36.918Z,95433.22
2023-03-11T10:55:56.487Z,95438.59
2023-03-11T11:00:13.117Z,95442.44
2023-03-11T11:04:41.534Z,95454.63
2023-03-11T11:09:11.799Z,95431.19
2023-03-11T11:13:31.973Z,95444.47
2023-03-11T11:17:48.334Z,95440.84
2023-03-11T11:22:06.230Z,95438.59
2023-03-11T11:26:28.834Z,95419.88
2023-03-11T11:31:07.361Z,95451.78
2023-03-11T11:35:22.903Z,95441.03
2023-03-11T11:39:52.268Z,95436.88
2023-03-11T11:44:07.147Z,95433.31
2023-03-11T11:48:35.115Z,95433.78
2023-03-11T11:52:58.392Z,95417.94
2023-03-11T11:57:23.533Z,95417.25
2023-03-11T12:01:59.192Z,95425.03
2023-03-11T12:06:57.892Z,95412.06
2023-03-11T12:11:20.932Z,95423.28
2023-03-11T12:15:46.953Z,95415.88
2023-03-11T12:20:12.104Z,95419.69
2023-03-11T12:24:52.302Z,95416.13
2023-03-11T12:29:26.949Z,95417.63
2023-03-11T12:33:52.374Z,95411.50
2023-03-11T12:38:14.065Z,95410.41
2023-03-11T12:42:41.163Z,95417.59
2023-03-11T12:47:03.351Z,95429.03
2023-03-11T12:51:38.247Z,95399.09
2023-03-11T12:56:21.965Z,95379.81
2023-03-11T13:01:13.421Z,95404.56
2023-03-11T13:06:08.346Z,95399.09
2023-03-11T13:10:41.589Z,95389.31
2023-03-11T13:15:19.454Z,95399.28
2023-03-11T13:19:32.848Z,95400.63
2023-03-11T13:23:45.376Z,95395.47
2023-03-11T13:28:08.933Z,95398.19
2023-03-11T13:32:55.111Z,95410.91
2023-03-11T13:37:31.279Z,95405.03
2023-03-11T13:41:45.588Z,95396.66
2023-03-11T13:46:07.871Z,95409.59
2023-03-11T13:50:31.099Z,95414.66
2023-03-11T13:54:50.220Z,95422.41
2023-03-11T13:59:34.506Z,95433.28
2023-03-11T14:03:49.035Z,95424.56
2023-03-11T14:08:24.206Z,95433.19
2023-03-11T14:12:37.629Z,95425.03
2023-03-11T14:16:50.190Z,95425.41
2023-03-11T14:21:07.486Z,95423.75
2023-03-11T14:25:25.456Z,95432.13
2023-03-11T14:29:41.260Z,95423.56
2023-03-11T14:34:14.665Z,95422.19
2023-03-11T14:38:45.167Z,95429.16
2023-03-11T14:54:54.343Z,95437.19
2023-03-11T15:05:43.105Z,95447.53
2023-03-11T15:09:57.122Z,95454.34
2023-03-11T15:14:32.722Z,95456.38
2023-03-11T15:18:45.223Z,95456.53
2023-03-11T15:23:02.126Z,95465.75
2023-03-11T15:27:44.654Z,95459.06
2023-03-11T15:31:58.304Z,95465.72
2023-03-11T15:36:40.216Z,95457.84
2023-03-11T15:40:59.388Z,95458.88
2023-03-11T15:45:17.334Z,95464.63
2023-03-11T15:49:31.256Z,95481.81
2023-03-11T15:53:43.701Z,95481.59
2023-03-11T15:58:20.883Z,95494.94
2023-03-11T16:02:33.765Z,95492.22
2023-03-11T16:06:59.471Z,95503.91
2023-03-11T16:11:19.592Z,95491.34
2023-03-11T16:15:36.477Z,95492.31
2023-03-11T16:19:55.410Z,95492.09
2023-03-11T16:24:09.295Z,95489.69
2023-03-11T16:28:21.877Z,95498.78
2023-03-11T16:32:34.403Z,95502.16
2023-03-11T16:36:48.254Z,95514.13
2023-03-11T16:41:03.283Z,95520.13
2023-03-11T16:45:18.608Z,95521.75
2023-03-11T16:49:31.351Z,95519.34
2023-03-11T16:53:43.912Z,95526.75
2023-03-11T16:57:58.175Z,95530.00
2023-03-11T17:02:12.668Z,95526.28
2023-03-11T17:06:25.212Z,95546.34
2023-03-11T17:10:44.274Z,95556.50
2023-03-11T17:14:57.097Z,95546.88
2023-03-11T17:19:09.694Z,95578.84
2023-03-11T17:23:22.432Z,95596.59
2023-03-11T17:27:34.980Z,95613.16
2023-03-11T17:31:47.441Z,95617.06
2023-03-11T17:36:08.289Z,95631.91
2023-03-11T17:40:20.925Z,95634.72
2023-03-11T17:44:50.040Z,95612.66
2023-03-11T17:49:03.855Z,95608.97
2023-03-11T17:53:16.384Z,95602.94
2023-03-11T17:57:28.888Z,95606.94
2023-03-11T18:01:41.347Z,95615.72
2023-03-11T18:06:04.680Z,95618.38
2023-03-11T18:10:17.596Z,95631.56
2023-03-11T18:14:30.014Z,95626.22
2023-03-11T18:18:43.744Z,95638.88
2023-03-11T18:22:56.864Z,95640.59
2023-03-11T18:27:09.311Z,95636.94
2023-03-11T18:31:24.921Z,95641.88
2023-03-11T18:35:37.435Z,95655.06
2023-03-11T18:39:49.969Z,95654.94
2023-03-11T18:44:03.539Z,95668.06
2023-03-11T18:48:16.032Z,95659.25
2023-03-11T18:52:29.020Z,95670.47
2023-03-11T18:56:52.043Z,95668.34
2023-03-11T19:01:14.688Z,95676.34
2023-03-11T19:05:28.964Z,95676.28
2023-03-11T19:09:50.812Z,95689.91
2023-03-11T19:14:03.670Z,95692.28
2023-03-11T19:18:16.470Z,95695.25
2023-03-11T19:22:28.935Z,95687.38
2023-03-11T19:26:45.305Z,95686.41
2023-03-11T19:31:08.406Z,95690.97
2023-03-11T19:35:22.712Z,95702.69
2023-03-11T19:39:35.156Z,95699.41
2023-03-11T19:43:48.590Z,95702.47
2023-03-11T19:48:01.519Z,95706.09
2023-03-11T19:52:14.461Z,95719.09
2023-03-11T19:56:28.398Z,95718.16
2023-03-11T20:00:42.523Z,95733.50
2023-03-11T20:04:55.168Z,95738.84
2023-03-11T20:09:07.842Z,95738.59
2023-03-11T20:13:22.904Z,95735.69
2023-03-11T20:17:35.521Z,95736.53
2023-03-11T20:21:48.054Z,95740.19
2023-03-11T20:26:00.837Z,95746.06
2023-03-11T20:30:14.162Z,95735.78
2023-03-11T20:34:26.682Z,95748.00
2023-03-11T20:38:39.461Z,95751.53
2023-03-11T20:42:52.056Z,95757.50
2023-03-11T20:47:04.873Z,95753.91
2023-03-11T20:51:21.096Z,95754.78
2023-03-11T20:55:33.519Z,95758.16
2023-03-11T20:59:45.984Z,95751.59
2023-03-11T21:04:02.112Z,95766.06
2023-03-11T21:08:23.554Z,95764.50
2023-03-11T21:12:36.071Z,95765.56
2023-03-11T21:16:49.154Z,95755.22
2023-03-11T21:21:02.455Z,95765.34
2023-03-11T21:25:15.180Z,95756.19
2023-03-11T21:29:27.705Z,95758.03
2023-03-11T21:33:41.848Z,95758.44
2023-03-11T21:37:55.188Z,95765.47
2023-03-11T21:42:08.001Z,95775.41
2023-03-11T21:46:25.761Z,95772.19
2023-03-11T21:50:42.224Z,95773.94
2023-03-11T21:54:54.907Z,95767.34
2023-03-11T21:59:08.587Z,95778.09
2023-03-11T22:03:21.323Z,95781.44
2023-03-11T22:07:43.894Z,95773.31
2023-03-11T22:11:56.976Z,95762.72
2023-03-11T22:16:09.741Z,95775.28
2023-03-11T22:20:22.986Z,95778.75
2023-03-11T22:24:35.471Z,95785.06
2023-03-11T22:28:48.126Z,95774.44
2023-03-11T22:33:00.591Z,95778.56
2023-03-11T22:37:13.188Z,95798.59
2023-03-11T22:41:29.787Z,95777.19
2023-03-11T22:45:42.284Z,95789.84
2023-03-11T22:49:54.776Z,95787.97
2023-03-11T22:54:07.401Z,95796.13
2023-03-11T22:58:21.601Z,95802.28
2023-03-11T23:02:34.069Z,95789.78
2023-03-11T23:06:46.500Z,95795.66
2023-03-11T23:11:04.818Z,95801.00
2023-03-11T23:15:19.626Z,95799.25
2023-03-11T23:19:32.216Z,95810.00
2023-03-11T23:23:44.767Z,95806.63
2023-03-11T23:27:57.817Z,95811.34
2023-03-11T23:32:12.721Z,95811.44
2023-03-11T23:36:28.387Z,95823.16
2023-03-11T23:40:42.355Z,95829.66
2023-03-11T23:44:55.020Z,95824.84
2023-03-11T23:49:07.466Z,95814.78
2023-03-11T23:53:23.929Z,95815.41
2023-03-11T23:57:37.459Z,95829.50
